Portada
METAR-TAF:

METAR-TAF

Aeroports :

Bangalore, Índia

latitud: 12-57-00N, longitud: 077-40-06E, altitud: 888 m

Observació

L'informe es va fer fa 4 hores i 1 minuts, a les 18:00 UTC
Vent 4 kt del Oest
Temperatura 23°C
Humitat 94%
Pressió 1013 hPa
Visibilitat: 5000 m
Núvols disperses a una alçada de 1200 ft
Núvols disperses a una alçada de 1800 ft
boirina

METAR: VOBG 281800Z 27004KT 5000 BR SCT012 SCT018 23/22 Q1013 NOSIG

Hora: 03:31 (22:01 UTC)

Pronòstic

L'informe es va fer fa 2 hores i 1 minuts, a les 20:00 UTC
Pronòstic vàlid del 28 a les 21 UTC al 29 a les 06 UTC
Vent 10 kt del Nord-Oest
Visibilitat: 6000 m
Núvols disperses a una alçada de 1200 ft
Núvols disperses a una alçada de 8000 ft
Temporalment
l' 28 a les 21 UTC al 29 a les 03 UTC
Visibilitat: 3000 m
Cel ennuvolat a una alçada de 800 ft
Núvols disperses a una alçada de 1200 ft
Cel ennuvolat a una alçada de 8000 ft
plugim, boirina

TAF: VOBG 282000Z 2821/2906 31010KT 6000 SCT012 SCT080 TEMPO 2821/2903 3000 DZ BR BKN008 SCT012 BKN080

Observacions i pronòstics meteorològics de més de 4000 aeroports (METAR i TAF).

Les estacions disponibles són els punts grocs i vermells al mapa.

Posi el ratolí al punt desitjat per veure el nom de l'estació.

Feu clic per veure les observacions i els pronòstics meteorològics.

Per canviar el mapa: feu clic els botons verds amb una creu de color negre per apropar; al botó verd amb un guió per allunyar la imatge; o en les fletxes verdes per a mapes adjacents.


METAR-TAF: